Time;durP1;ratioP1;P1;durP2;ratioP2;P2;SDS_P1;SDS_P2;PMS_P1;PMS_P2;Temp;Humidity;BMP_temperature;BMP_pressure;BME280_temperature;BME280_humidity;BME280_pressure;Samples;Min_cycle;Max_cycle;Signal;HPM_P1;HPM_P2
2022/11/30 00:02:23;;;;;;;;;;;;;;;10.00;93.16;101847.88;7395625;19;21243;-88
2022/11/30 00:04:51;;;;;;;;;;;;;;;10.02;92.90;101859.09;7395255;19;19963;-87
2022/11/30 00:07:18;;;;;;;;;;;;;;;10.04;92.81;101858.97;7364056;19;19919;-88
2022/11/30 00:09:45;;;;;;;;;;;;;;;10.05;93.14;101855.41;7389811;19;19926;-89
2022/11/30 00:12:12;;;;;;;;;;;;;;;10.07;92.32;101856.94;7385377;19;20415;-88
2022/11/30 00:14:40;;;;;;;;;;;;;;;10.10;92.29;101859.31;7395650;19;20236;-89
2022/11/30 00:17:07;;;;;;;;;;;;;;;10.11;92.28;101852.25;7390290;19;19943;-87
2022/11/30 00:19:34;;;;;;;;;;;;;;;10.11;92.73;101857.50;7390133;19;19922;-89
2022/11/30 00:22:01;;;;;;;;;;;;;;;10.12;92.89;101860.03;7389877;19;19919;-88
2022/11/30 00:24:28;;;;;;;;;;;;;;;10.11;92.98;101853.09;7370398;19;19919;-89
2022/11/30 00:26:55;;;;;;;;;;;;;;;10.13;93.48;101853.81;7388516;19;19990;-88
2022/11/30 00:29:22;;;;;;;;;;;;;;;10.14;93.45;101858.13;7391537;19;19921;-88
2022/11/30 00:31:49;;;;;;;;;;;;;;;10.15;93.14;101851.06;7389154;19;19923;-88
2022/11/30 00:34:16;;;;;;;;;;;;;;;10.15;93.22;101843.19;7390973;19;20237;-89
2022/11/30 00:36:43;;;;;;;;;;;;;;;10.14;92.52;101852.84;7393524;19;20632;-89
2022/11/30 00:39:11;;;;;;;;;;;;;;;10.16;92.82;101852.75;7360582;19;19923;-88
2022/11/30 00:41:44;;;;;;;;;;;;;;;10.14;93.22;101844.97;7392745;19;19914;-89
2022/11/30 00:44:11;;;;;;;;;;;;;;;10.16;92.65;101843.06;7394102;19;19930;-88
2022/11/30 00:46:38;;;;;;;;;;;;;;;10.18;92.57;101843.78;7393855;19;19925;-85
2022/11/30 00:49:05;;;;;;;;;;;;;;;10.19;92.39;101847.25;7395716;19;20381;-88
2022/11/30 00:54:49;;;;;;;;;;;;;;;10.17;92.35;101846.53;7376716;19;19927;-87
2022/11/30 00:57:18;;;;;;;;;;;;;;;10.19;91.61;101847.25;7389238;19;19930;-90
2022/11/30 00:59:46;;;;;;;;;;;;;;;10.19;91.84;101860.41;7392207;19;19918;-88
2022/11/30 01:02:18;;;;;;;;;;;;;;;10.18;92.17;101859.56;7393863;19;19982;-88
2022/11/30 01:04:48;;;;;;;;;;;;;;;10.15;92.29;101848.44;7395079;19;20571;-89
2022/11/30 01:07:15;;;;;;;;;;;;;;;10.14;92.73;101844.97;7389979;19;19927;-88
2022/11/30 01:09:49;;;;;;;;;;;;;;;10.15;92.87;101838.75;7367903;19;19919;-88
2022/11/30 01:12:18;;;;;;;;;;;;;;;10.17;92.08;101844.72;7386388;19;19923;-87
2022/11/30 01:14:46;;;;;;;;;;;;;;;10.16;91.96;101842.22;7389698;19;19937;-89
2022/11/30 01:17:13;;;;;;;;;;;;;;;10.17;92.21;101849.16;7389446;19;19926;-90
2022/11/30 01:19:40;;;;;;;;;;;;;;;10.13;92.00;101847.72;7391788;19;19927;-86
2022/11/30 01:22:10;;;;;;;;;;;;;;;10.10;92.22;101847.97;7395701;19;19919;-88
2022/11/30 01:24:41;;;;;;;;;;;;;;;10.10;92.42;101854.06;7392862;19;19929;-88
2022/11/30 01:27:11;;;;;;;;;;;;;;;10.10;92.81;101850.59;7373122;19;19939;-87
2022/11/30 01:29:38;;;;;;;;;;;;;;;10.09;92.52;101848.94;7390088;19;19911;-89
2022/11/30 01:32:05;;;;;;;;;;;;;;;10.08;92.12;101858.59;7389619;19;19919;-88
2022/11/30 01:34:35;;;;;;;;;;;;;;;10.06;92.00;101852.63;7389998;19;19926;-89
2022/11/30 01:37:02;;;;;;;;;;;;;;;10.10;91.34;101855.88;7389993;19;20449;-88
2022/11/30 01:39:36;;;;;;;;;;;;;;;10.09;91.45;101849.75;7392594;19;19914;-88
2022/11/30 01:42:03;;;;;;;;;;;;;;;10.10;91.40;101855.88;7371981;19;19919;-88
2022/11/30 01:44:31;;;;;;;;;;;;;;;10.09;91.20;101862.06;7390493;19;21654;-88
2022/11/30 01:47:04;;;;;;;;;;;;;;;10.07;91.17;101864.81;7391926;19;19911;-89
2022/11/30 01:52:52;;;;;;;;;;;;;;;10.11;91.39;101866.22;7393129;19;20346;-89
2022/11/30 01:55:23;;;;;;;;;;;;;;;10.14;91.35;101866.00;7388717;19;19927;-88
2022/11/30 01:57:57;;;;;;;;;;;;;;;10.13;90.75;101868.75;7361654;19;19915;-87
2022/11/30 02:00:24;;;;;;;;;;;;;;;10.13;90.45;101871.38;7387284;19;20051;-87
2022/11/30 02:06:14;;;;;;;;;;;;;;;10.09;91.54;101862.06;7388223;19;19915;-88
2022/11/30 02:08:43;;;;;;;;;;;;;;;10.07;90.85;101859.56;7388296;19;19939;-88
2022/11/30 02:11:13;;;;;;;;;;;;;;;10.07;91.29;101861.34;7385873;19;19941;-88
2022/11/30 02:13:47;;;;;;;;;;;;;;;10.04;91.49;101859.81;7358062;19;19926;-89
2022/11/30 02:16:23;;;;;;;;;;;;;;;10.05;92.08;101864.13;7388032;19;19919;-89
2022/11/30 02:18:56;;;;;;;;;;;;;;;10.03;91.99;101866.03;7389840;19;19931;-88
2022/11/30 02:21:29;;;;;;;;;;;;;;;10.04;91.58;101862.44;7389252;19;19926;-87
2022/11/30 02:24:06;;;;;;;;;;;;;;;10.04;91.58;101867.72;7393317;19;19926;-88
2022/11/30 02:26:50;;;;;;;;;;;;;;;10.01;91.69;101870.56;7383759;19;21591;-88
2022/11/30 02:29:28;;;;;;;;;;;;;;;9.96;92.14;101862.22;7361897;19;20345;-87
2022/11/30 02:32:01;;;;;;;;;;;;;;;9.97;91.77;101863.06;7396605;19;19951;-86
2022/11/30 02:34:36;;;;;;;;;;;;;;;9.97;92.08;101863.06;7400971;19;19915;-88
2022/11/30 02:37:11;;;;;;;;;;;;;;;9.93;91.58;101859.84;7408757;19;19970;-88
2022/11/30 02:39:47;;;;;;;;;;;;;;;9.95;92.09;101865.81;7403073;19;19946;-88
2022/11/30 02:42:15;;;;;;;;;;;;;;;9.95;92.56;101860.56;7402543;19;19923;-87
2022/11/30 02:44:49;;;;;;;;;;;;;;;9.94;92.14;101864.16;7399997;19;19927;-88
2022/11/30 02:47:29;;;;;;;;;;;;;;;9.95;91.89;101862.34;7400155;19;19931;-87
2022/11/30 02:50:01;;;;;;;;;;;;;;;9.94;92.11;101861.53;7403391;19;19922;-89
2022/11/30 02:52:30;;;;;;;;;;;;;;;9.92;92.05;101866.06;7408915;19;19955;-89
2022/11/30 02:54:58;;;;;;;;;;;;;;;9.94;92.19;101866.78;7406984;19;19922;-88
2022/11/30 02:57:26;;;;;;;;;;;;;;;9.97;92.28;101869.16;7406190;19;19914;-89
2022/11/30 02:59:53;;;;;;;;;;;;;;;10.00;92.10;101862.81;7389215;19;20481;-88
2022/11/30 03:02:20;;;;;;;;;;;;;;;9.99;92.60;101869.88;7397700;19;20356;-90
2022/11/30 03:04:48;;;;;;;;;;;;;;;9.99;92.12;101867.25;7400865;19;19911;-87
2022/11/30 03:07:17;;;;;;;;;;;;;;;9.99;92.24;101867.25;7403146;19;19927;-88
2022/11/30 03:09:44;;;;;;;;;;;;;;;9.99;92.48;101866.41;7406115;19;20336;-88
2022/11/30 03:12:12;;;;;;;;;;;;;;;10.03;92.86;101859.94;7404501;19;19974;-88
2022/11/30 03:14:39;;;;;;;;;;;;;;;10.02;92.78;101868.78;7405303;19;19948;-88
2022/11/30 03:17:23;;;;;;;;;;;;;;;10.03;93.08;101878.34;7358618;19;19987;-88
2022/11/30 03:19:52;;;;;;;;;;;;;;;10.05;93.20;101871.19;7395554;19;19935;-89
2022/11/30 03:22:19;;;;;;;;;;;;;;;10.05;92.77;101868.53;7396367;19;19911;-87
2022/11/30 03:24:46;;;;;;;;;;;;;;;10.08;92.49;101873.53;7392946;19;19967;-88
2022/11/30 03:27:14;;;;;;;;;;;;;;;10.08;92.39;101861.25;7393810;19;19927;-88
2022/11/30 03:29:41;;;;;;;;;;;;;;;10.09;91.96;101872.59;7394665;19;19923;-87
2022/11/30 03:32:08;;;;;;;;;;;;;;;10.11;91.98;101868.88;7370475;19;19925;-88
2022/11/30 03:34:48;;;;;;;;;;;;;;;10.12;92.11;101872.34;7397155;19;19929;-89
2022/11/30 03:40:36;;;;;;;;;;;;;;;10.10;91.80;101874.28;7397635;19;19926;-88
2022/11/30 03:43:03;;;;;;;;;;;;;;;10.08;91.51;101874.38;7392689;19;19918;-90
2022/11/30 03:45:30;;;;;;;;;;;;;;;10.09;91.44;101881.31;7394497;19;19943;-88
2022/11/30 03:47:59;;;;;;;;;;;;;;;10.13;91.36;101880.09;7373932;19;19932;-89
2022/11/30 03:50:32;;;;;;;;;;;;;;;10.18;91.56;101885.03;7386555;19;19955;-88
2022/11/30 03:53:00;;;;;;;;;;;;;;;10.19;91.20;101895.44;7392633;19;19951;-88
2022/11/30 03:55:27;;;;;;;;;;;;;;;10.20;90.88;101883.97;7389762;19;19923;-89
2022/11/30 03:57:54;;;;;;;;;;;;;;;10.21;91.11;101884.75;7390669;19;19958;-89
2022/11/30 04:00:22;;;;;;;;;;;;;;;10.21;91.04;101888.22;7391327;19;19915;-88
2022/11/30 04:02:50;;;;;;;;;;;;;;;10.21;90.99;101895.28;7374576;19;19922;-89
2022/11/30 04:05:21;;;;;;;;;;;;;;;10.19;90.77;101890.16;7387142;19;20549;-87
2022/11/30 04:07:48;;;;;;;;;;;;;;;10.20;90.87;101891.00;7395549;19;19982;-86
2022/11/30 04:10:16;;;;;;;;;;;;;;;10.22;91.35;101886.44;7385564;19;20704;-89
2022/11/30 04:12:46;;;;;;;;;;;;;;;10.23;90.84;101896.00;7387378;19;20336;-90
2022/11/30 04:15:13;;;;;;;;;;;;;;;10.22;90.76;101889.06;7386112;19;19971;-87
2022/11/30 04:20:54;;;;;;;;;;;;;;;10.21;91.22;101896.13;7387255;19;20002;-86
2022/11/30 04:23:25;;;;;;;;;;;;;;;10.21;90.88;101896.13;7392563;19;19922;-87
2022/11/30 04:25:52;;;;;;;;;;;;;;;10.21;90.93;101905.81;7393658;19;19911;-88
2022/11/30 04:28:19;;;;;;;;;;;;;;;10.21;90.67;101903.16;7392726;19;19918;-88
2022/11/30 04:30:47;;;;;;;;;;;;;;;10.21;90.86;101892.66;7388330;19;19923;-87
2022/11/30 04:33:15;;;;;;;;;;;;;;;10.22;91.01;101894.34;7390765;19;19915;-89
2022/11/30 04:35:43;;;;;;;;;;;;;;;10.21;90.71;101901.38;7371781;19;19918;-88
2022/11/30 04:38:14;;;;;;;;;;;;;;;10.21;90.60;101896.13;7390479;19;20172;-88
2022/11/30 04:40:42;;;;;;;;;;;;;;;10.23;91.08;101890.75;7392450;19;19954;-88
2022/11/30 04:43:10;;;;;;;;;;;;;;;10.22;90.92;101897.78;7389239;19;19919;-88
2022/11/30 04:45:40;;;;;;;;;;;;;;;10.21;90.68;101897.91;7388898;19;19926;-88
2022/11/30 04:48:11;;;;;;;;;;;;;;;10.21;91.03;101898.75;7390379;19;19939;-89
2022/11/30 04:50:39;;;;;;;;;;;;;;;10.22;91.13;101902.22;7374466;19;19931;-87
2022/11/30 04:53:08;;;;;;;;;;;;;;;10.22;90.90;101903.06;7390889;19;20610;-88
2022/11/30 04:55:36;;;;;;;;;;;;;;;10.24;90.90;101900.31;7393756;19;19915;-89
2022/11/30 04:58:04;;;;;;;;;;;;;;;10.26;90.62;101908.91;7394939;19;20059;-87
2022/11/30 05:00:33;;;;;;;;;;;;;;;10.27;90.68;101907.94;7393548;19;19926;-88
2022/11/30 05:03:00;;;;;;;;;;;;;;;10.25;90.35;101905.47;7392056;19;19936;-89
2022/11/30 05:05:27;;;;;;;;;;;;;;;10.27;90.56;101905.31;7389214;19;19959;-89
2022/11/30 05:07:59;;;;;;;;;;;;;;;10.28;90.70;101904.38;7386598;19;19925;-87
2022/11/30 05:10:30;;;;;;;;;;;;;;;10.29;91.15;101898.97;7395657;19;19923;-88
2022/11/30 05:12:59;;;;;;;;;;;;;;;10.30;90.94;101902.44;7395376;19;19941;-89
2022/11/30 05:15:26;;;;;;;;;;;;;;;10.29;90.84;101903.41;7394629;19;19946;-88
2022/11/30 05:17:57;;;;;;;;;;;;;;;10.28;90.91;101907.00;7394563;19;19919;-90
2022/11/30 05:20:24;;;;;;;;;;;;;;;10.29;91.19;101913.94;7393857;19;19939;-87
2022/11/30 05:22:51;;;;;;;;;;;;;;;10.31;91.11;101908.56;7375120;19;19980;-89
2022/11/30 05:25:19;;;;;;;;;;;;;;;10.31;90.84;101913.81;7393973;19;20502;-88
2022/11/30 05:27:48;;;;;;;;;;;;;;;10.31;91.04;101911.19;7392540;19;19975;-89
2022/11/30 05:30:18;;;;;;;;;;;;;;;10.29;91.34;101914.75;7392422;19;19927;-89
2022/11/30 05:32:45;;;;;;;;;;;;;;;10.27;91.44;101923.72;7393303;19;20586;-89
2022/11/30 05:35:12;;;;;;;;;;;;;;;10.27;91.14;101919.31;7393379;19;19974;-89
2022/11/30 05:37:39;;;;;;;;;;;;;;;10.27;90.98;101924.56;7391797;19;20041;-89
2022/11/30 05:40:08;;;;;;;;;;;;;;;10.27;91.00;101929.81;7391535;19;19919;-89
2022/11/30 05:42:35;;;;;;;;;;;;;;;10.27;90.56;101934.25;7389728;19;19939;-89
2022/11/30 05:45:02;;;;;;;;;;;;;;;10.28;90.88;101933.28;7392333;19;19923;-90
2022/11/30 05:50:47;;;;;;;;;;;;;;;10.26;90.86;101935.19;7387979;19;19987;-88
2022/11/30 05:53:18;;;;;;;;;;;;;;;10.25;91.11;101944.06;7389219;19;19910;-88
2022/11/30 05:55:45;;;;;;;;;;;;;;;10.21;90.73;101938.19;7390220;19;20435;-89
2022/11/30 05:58:12;;;;;;;;;;;;;;;10.20;90.91;101943.59;7390857;19;19938;-89
2022/11/30 06:00:41;;;;;;;;;;;;;;;10.19;90.91;101940.13;7389884;19;19919;-87
2022/11/30 06:03:08;;;;;;;;;;;;;;;10.22;91.60;101941.66;7391008;19;19935;-89
2022/11/30 06:05:36;;;;;;;;;;;;;;;10.23;91.51;101945.97;7386938;19;19910;-89
2022/11/30 06:08:04;;;;;;;;;;;;;;;10.24;91.23;101942.41;7386713;19;19979;-88
2022/11/30 06:10:35;;;;;;;;;;;;;;;10.24;91.34;101932.72;7385738;19;20380;-88
2022/11/30 06:13:05;;;;;;;;;;;;;;;10.24;90.92;101945.88;7390232;19;19951;-88
2022/11/30 06:15:37;;;;;;;;;;;;;;;10.23;91.17;101944.19;7390654;19;19915;-88
2022/11/30 06:18:05;;;;;;;;;;;;;;;10.26;91.47;101943.09;7397320;19;19947;-89
2022/11/30 06:20:33;;;;;;;;;;;;;;;10.27;91.49;101944.78;7398117;19;19986;-87
2022/11/30 06:23:00;;;;;;;;;;;;;;;10.25;91.44;101955.44;7397796;19;19929;-91
2022/11/30 06:25:28;;;;;;;;;;;;;;;10.24;91.31;101948.50;7402682;19;19939;-88
2022/11/30 06:27:55;;;;;;;;;;;;;;;10.25;91.23;101951.97;7402831;19;19918;-90
2022/11/30 06:30:23;;;;;;;;;;;;;;;10.28;91.52;101954.34;7400159;19;19918;-89
2022/11/30 06:32:51;;;;;;;;;;;;;;;10.30;91.63;101949.81;7400287;19;19930;-89
2022/11/30 06:35:21;;;;;;;;;;;;;;;10.32;91.60;101954.91;7401543;19;19991;-89
2022/11/30 06:41:05;;;;;;;;;;;;;;;10.33;90.98;101952.16;7404486;19;19942;-89
2022/11/30 06:43:36;;;;;;;;;;;;;;;10.31;90.51;101953.28;7404229;19;19927;-91
2022/11/30 06:46:03;;;;;;;;;;;;;;;10.33;90.78;101953.97;7402428;19;19994;-89
2022/11/30 06:48:31;;;;;;;;;;;;;;;10.33;90.79;101957.44;7401486;19;20284;-88
2022/11/30 06:50:59;;;;;;;;;;;;;;;10.34;90.68;101953.84;7399693;19;19923;-89
2022/11/30 06:53:26;;;;;;;;;;;;;;;10.32;90.66;101961.00;7399577;19;19925;-88
2022/11/30 06:55:55;;;;;;;;;;;;;;;10.31;90.66;101955.91;7400844;19;19914;-90
2022/11/30 06:58:35;;;;;;;;;;;;;;;10.35;91.23;101967.84;7399250;19;19915;-89
2022/11/30 07:01:04;;;;;;;;;;;;;;;10.35;91.02;101973.09;7400405;19;19985;-88
2022/11/30 07:03:34;;;;;;;;;;;;;;;10.35;90.92;101971.31;7397533;19;19923;-89
2022/11/30 07:06:09;;;;;;;;;;;;;;;10.36;90.63;101972.16;7400872;19;19927;-88
2022/11/30 07:08:44;;;;;;;;;;;;;;;10.37;90.63;101979.06;7399121;19;19936;-89
2022/11/30 07:11:12;;;;;;;;;;;;;;;10.37;90.77;101987.78;7395752;19;20317;-90
2022/11/30 07:13:52;;;;;;;;;;;;;;;10.33;90.93;101985.53;7397729;19;20417;-90
2022/11/30 07:16:26;;;;;;;;;;;;;;;10.37;91.10;101989.59;7400378;19;19922;-87
2022/11/30 07:18:54;;;;;;;;;;;;;;;10.36;91.18;101993.19;7397973;19;20278;-88
2022/11/30 07:21:34;;;;;;;;;;;;;;;10.37;90.63;101992.22;7400430;19;19923;-90
2022/11/30 07:27:06;;;;;;;;;;;;;;;10.38;91.11;102004.41;7398999;19;20261;-89
2022/11/30 07:29:50;;;;;;;;;;;;;;;10.35;91.04;102002.03;7395774;19;19918;-90
2022/11/30 07:32:20;;;;;;;;;;;;;;;10.34;91.05;102013.50;7398725;19;20356;-88
2022/11/30 07:34:56;;;;;;;;;;;;;;;10.32;91.26;102013.63;7396128;19;20412;-89
2022/11/30 07:37:34;;;;;;;;;;;;;;;10.33;91.75;102015.31;7398143;19;20293;-89
2022/11/30 07:40:16;;;;;;;;;;;;;;;10.29;91.81;102013.88;7398330;19;20277;-88
2022/11/30 07:43:00;;;;;;;;;;;;;;;10.28;92.10;102014.84;7399288;19;20516;-89
2022/11/30 07:45:46;;;;;;;;;;;;;;;10.28;92.10;102015.69;7398227;19;19922;-88
2022/11/30 07:48:21;;;;;;;;;;;;;;;10.29;92.38;102021.78;7393419;19;19911;-90
2022/11/30 07:51:23;;;;;;;;;;;;;;;10.31;92.40;102032.19;7393053;19;19933;-89
2022/11/30 07:53:58;;;;;;;;;;;;;;;10.33;91.64;102025.00;7400126;19;19926;-88
2022/11/30 07:57:01;;;;;;;;;;;;;;;10.32;91.94;102033.84;7394886;19;19927;-88
2022/11/30 07:59:33;;;;;;;;;;;;;;;10.33;91.49;102035.50;7395869;19;19922;-87
2022/11/30 08:02:00;;;;;;;;;;;;;;;10.32;91.13;102041.72;7395755;19;20398;-87
2022/11/30 08:04:27;;;;;;;;;;;;;;;10.32;91.00;102053.09;7399660;19;19925;-88
2022/11/30 08:06:55;;;;;;;;;;;;;;;10.33;91.22;102043.41;7391685;19;19922;-90
2022/11/30 08:09:21;;;;;;;;;;;;;;;10.35;91.00;102044.97;7395279;19;19919;-89
2022/11/30 08:11:48;;;;;;;;;;;;;;;10.36;90.60;102049.28;7394786;19;19919;-88
2022/11/30 08:14:17;;;;;;;;;;;;;;;10.35;90.74;102055.50;7395320;19;19926;-87
2022/11/30 08:16:44;;;;;;;;;;;;;;;10.36;91.03;102061.59;7398627;19;19951;-92
2022/11/30 08:19:11;;;;;;;;;;;;;;;10.38;91.25;102059.66;7399330;19;19926;-93
2022/11/30 08:21:38;;;;;;;;;;;;;;;10.37;91.30;102069.34;7401536;19;19943;-90
2022/11/30 08:24:08;;;;;;;;;;;;;;;10.40;91.46;102068.28;7399016;19;20282;-91
2022/11/30 08:26:41;;;;;;;;;;;;;;;10.42;91.60;102072.44;7398761;19;20268;-90
2022/11/30 08:29:09;;;;;;;;;;;;;;;10.41;91.03;102070.81;7396349;19;19919;-88
2022/11/30 08:31:37;;;;;;;;;;;;;;;10.43;90.78;102071.50;7394859;19;19919;-88
2022/11/30 08:34:05;;;;;;;;;;;;;;;10.42;90.59;102064.56;7395418;19;19911;-88
2022/11/30 08:36:33;;;;;;;;;;;;;;;10.44;90.88;102075.81;7397627;19;19932;-90
2022/11/30 08:42:18;;;;;;;;;;;;;;;10.46;90.34;102086.22;7402862;19;19919;-87
2022/11/30 08:44:46;;;;;;;;;;;;;;;10.45;90.39;102087.19;7402811;19;19941;-87
2022/11/30 08:47:15;;;;;;;;;;;;;;;10.45;90.56;102089.81;7400915;19;19914;-91
2022/11/30 08:49:45;;;;;;;;;;;;;;;10.48;90.87;102093.03;7399691;19;19931;-89
2022/11/30 08:52:15;;;;;;;;;;;;;;;10.49;90.55;102096.50;7403276;19;19925;-89
2022/11/30 08:55:21;;;;;;;;;;;;;;;10.50;90.29;102103.44;7363493;19;19994;-88
2022/11/30 08:57:49;;;;;;;;;;;;;;;10.51;90.45;102103.31;7391968;19;19927;-88
2022/11/30 09:00:19;;;;;;;;;;;;;;;10.51;90.36;102098.06;7393410;19;19918;-87
2022/11/30 09:02:46;;;;;;;;;;;;;;;10.50;89.88;102093.75;7395097;19;19919;-90
2022/11/30 09:05:13;;;;;;;;;;;;;;;10.48;89.82;102100.91;7392154;19;19953;-88
2022/11/30 09:10:50;;;;;;;;;;;;;;;10.46;90.27;102102.84;7396331;19;19923;-90
2022/11/30 09:13:21;;;;;;;;;;;;;;;10.45;90.33;102102.97;7398786;19;19935;-88
2022/11/30 09:15:53;;;;;;;;;;;;;;;10.39;90.15;102108.69;7395414;19;20036;-88
2022/11/30 09:18:20;;;;;;;;;;;;;;;10.37;90.23;102108.81;7392276;19;20448;-89
2022/11/30 09:21:02;;;;;;;;;;;;;;;10.38;90.64;102104.38;7390080;19;19922;-89
2022/11/30 09:23:29;;;;;;;;;;;;;;;10.38;90.66;102102.59;7393276;19;19947;-89
2022/11/30 09:25:58;;;;;;;;;;;;;;;10.36;90.16;102107.16;7391795;19;19946;-88
2022/11/30 09:28:26;;;;;;;;;;;;;;;10.37;90.41;102115.88;7390165;19;19923;-89
2022/11/30 09:30:53;;;;;;;;;;;;;;;10.39;90.64;102112.16;7389834;19;19918;-89
2022/11/30 09:36:39;;;;;;;;;;;;;;;10.44;90.72;102117.91;7395322;19;20530;-87
2022/11/30 09:39:15;;;;;;;;;;;;;;;10.48;91.21;102126.38;7390580;19;20613;-88
2022/11/30 09:42:03;;;;;;;;;;;;;;;10.52;92.07;102122.56;7394561;19;19915;-88
2022/11/30 09:44:30;;;;;;;;;;;;;;;10.53;91.54;102127.72;7392870;19;20161;-88
2022/11/30 09:46:58;;;;;;;;;;;;;;;10.56;91.22;102127.50;7395292;19;19922;-89
2022/11/30 09:52:48;;;;;;;;;;;;;;;10.59;90.98;102134.28;7391780;19;20272;-88
2022/11/30 09:55:21;;;;;;;;;;;;;;;10.59;90.86;102132.50;7399803;19;19922;-86
2022/11/30 09:57:51;;;;;;;;;;;;;;;10.58;90.41;102129.97;7393900;19;19934;-87
2022/11/30 10:00:20;;;;;;;;;;;;;;;10.59;90.59;102127.22;7396105;19;19919;-90
2022/11/30 10:02:49;;;;;;;;;;;;;;;10.58;90.14;102127.34;7396877;19;19922;-88
2022/11/30 10:05:24;;;;;;;;;;;;;;;10.57;90.12;102134.41;7395951;19;19922;-89
2022/11/30 10:08:08;;;;;;;;;;;;;;;10.57;90.09;102133.56;7396969;19;19915;-89
2022/11/30 10:10:44;;;;;;;;;;;;;;;10.57;89.76;102141.44;7392678;19;19959;-88
2022/11/30 10:13:22;;;;;;;;;;;;;;;10.57;89.81;102144.94;7394523;19;21527;-89
2022/11/30 10:15:59;;;;;;;;;;;;;;;10.57;90.11;102137.03;7393444;19;20333;-89
2022/11/30 10:18:35;;;;;;;;;;;;;;;10.58;90.13;102143.13;7395010;19;19927;-89
2022/11/30 10:21:12;;;;;;;;;;;;;;;10.58;90.26;102136.06;7396201;19;19918;-88
2022/11/30 10:23:51;;;;;;;;;;;;;;;10.59;89.87;102139.56;7392515;19;19927;-89
2022/11/30 10:26:36;;;;;;;;;;;;;;;10.59;89.85;102139.56;7390644;19;19943;-88
2022/11/30 10:29:12;;;;;;;;;;;;;;;10.60;89.60;102141.22;7389519;19;21147;-87
2022/11/30 10:31:41;;;;;;;;;;;;;;;10.57;89.68;102139.66;7386142;19;19919;-87
2022/11/30 10:34:18;;;;;;;;;;;;;;;10.58;89.35;102137.88;7386647;19;20323;-88
2022/11/30 10:36:47;;;;;;;;;;;;;;;10.55;89.62;102130.22;7388360;19;19922;-86
2022/11/30 10:39:19;;;;;;;;;;;;;;;10.56;89.79;102130.13;7387519;19;20504;-87
2022/11/30 10:41:58;;;;;;;;;;;;;;;10.58;90.03;102129.97;7389752;19;19923;-88
2022/11/30 10:44:29;;;;;;;;;;;;;;;10.59;89.57;102131.66;7391510;19;19931;-88
2022/11/30 10:47:05;;;;;;;;;;;;;;;10.60;88.94;102131.53;7386460;19;20311;-88
2022/11/30 10:49:34;;;;;;;;;;;;;;;10.61;89.18;102132.38;7388122;19;20218;-87
2022/11/30 10:52:11;;;;;;;;;;;;;;;10.61;89.23;102133.22;7391260;19;19918;-88
2022/11/30 10:54:38;;;;;;;;;;;;;;;10.61;89.34;102130.59;7390323;19;19926;-87
2022/11/30 10:57:06;;;;;;;;;;;;;;;10.64;89.06;102113.72;7389101;19;19919;-87
2022/11/30 10:59:40;;;;;;;;;;;;;;;10.65;89.09;102118.03;7389384;19;19995;-88
2022/11/30 11:05:30;;;;;;;;;;;;;;;10.66;88.64;102117.91;7397177;19;19911;-88
2022/11/30 11:07:57;;;;;;;;;;;;;;;10.68;88.88;102125.66;7394057;19;19925;-88
2022/11/30 11:10:44;;;;;;;;;;;;;;;10.72;89.37;102122.66;7395863;19;20270;-88
2022/11/30 11:13:16;;;;;;;;;;;;;;;10.76;89.48;102127.69;7363239;19;19911;-88
2022/11/30 11:15:56;;;;;;;;;;;;;;;10.77;88.93;102130.19;7387573;19;20302;-88
2022/11/30 11:18:25;;;;;;;;;;;;;;;10.82;88.86;102120.13;7395762;19;19936;-90
2022/11/30 11:20:59;;;;;;;;;;;;;;;10.88;88.74;102126.72;7396079;19;20256;-89
2022/11/30 11:23:34;;;;;;;;;;;;;;;10.92;88.36;102122.91;7397688;19;19947;-88
2022/11/30 11:26:02;;;;;;;;;;;;;;;10.94;87.61;102127.06;7396126;19;19954;-88
2022/11/30 11:28:44;;;;;;;;;;;;;;;10.99;87.28;102127.53;7392323;19;19914;-88
2022/11/30 11:31:20;;;;;;;;;;;;;;;11.05;86.39;102129.69;7393032;19;19925;-89
2022/11/30 11:33:56;;;;;;;;;;;;;;;11.11;85.72;102138.88;7395152;19;19967;-88
2022/11/30 11:36:28;;;;;;;;;;;;;;;11.12;85.46;102122.94;7386911;19;19922;-88
2022/11/30 11:38:55;;;;;;;;;;;;;;;11.13;85.65;102129.03;7394324;19;20269;-88
2022/11/30 11:44:42;;;;;;;;;;;;;;;11.19;86.19;102131.19;7392922;19;19929;-89
2022/11/30 11:47:21;;;;;;;;;;;;;;;11.21;85.77;102126.63;7392692;19;19911;-87
2022/11/30 11:49:49;;;;;;;;;;;;;;;11.27;84.70;102128.78;7394292;19;19911;-87
2022/11/30 11:52:16;;;;;;;;;;;;;;;11.22;84.83;102127.47;7390840;19;19982;-89
2022/11/30 11:54:47;;;;;;;;;;;;;;;11.13;84.99;102129.03;7399494;19;19932;-88
2022/11/30 11:57:16;;;;;;;;;;;;;;;11.11;85.74;102118.66;7398098;19;19925;-88
2022/11/30 11:59:53;;;;;;;;;;;;;;;11.10;85.37;102121.41;7396587;19;19947;-88
2022/11/30 12:02:23;;;;;;;;;;;;;;;11.07;85.56;102126.94;7403490;19;19915;-89
2022/11/30 12:04:55;;;;;;;;;;;;;;;11.05;85.97;102124.41;7403866;19;20029;-89
2022/11/30 12:07:25;;;;;;;;;;;;;;;11.06;86.37;102131.34;7395202;19;19922;-88
2022/11/30 12:09:56;;;;;;;;;;;;;;;11.10;85.49;102134.56;7393072;19;20479;-88
2022/11/30 12:12:23;;;;;;;;;;;;;;;11.12;84.81;102137.94;7390713;19;20321;-87
2022/11/30 12:14:50;;;;;;;;;;;;;;;11.15;84.56;102135.88;7396092;19;19986;-88
2022/11/30 12:17:18;;;;;;;;;;;;;;;11.17;83.78;102132.28;7392395;19;19922;-88
2022/11/30 12:19:57;;;;;;;;;;;;;;;11.23;82.96;102134.41;7398216;19;19947;-89
2022/11/30 12:22:28;;;;;;;;;;;;;;;11.21;81.90;102133.72;7396638;19;19951;-88
2022/11/30 12:25:10;;;;;;;;;;;;;;;11.19;82.37;102135.63;7396960;19;19919;-89
2022/11/30 12:27:49;;;;;;;;;;;;;;;11.14;82.93;102136.00;7395584;19;20217;-89
2022/11/30 12:30:23;;;;;;;;;;;;;;;11.11;83.17;102133.63;7394372;19;19930;-88
2022/11/30 12:32:53;;;;;;;;;;;;;;;11.12;83.30;102141.38;7391741;19;19919;-89
2022/11/30 12:35:25;;;;;;;;;;;;;;;11.12;83.07;102138.75;7397108;19;19915;-90
2022/11/30 12:38:00;;;;;;;;;;;;;;;11.15;83.09;102137.66;7396913;19;20239;-88
2022/11/30 12:40:29;;;;;;;;;;;;;;;11.19;83.17;102139.09;7402421;19;19927;-87
2022/11/30 12:43:00;;;;;;;;;;;;;;;11.27;81.48;102139.31;7400477;19;19932;-87
2022/11/30 12:45:30;;;;;;;;;;;;;;;11.28;81.25;102137.50;7396305;19;19906;-87
2022/11/30 12:48:00;;;;;;;;;;;;;;;11.23;81.33;102131.75;7401319;19;19918;-89
2022/11/30 12:50:31;;;;;;;;;;;;;;;11.19;81.46;102133.81;7399224;19;19937;-88
2022/11/30 12:56:21;;;;;;;;;;;;;;;11.19;81.38;102139.09;7404666;19;19930;-86
2022/11/30 12:58:53;;;;;;;;;;;;;;;11.22;81.22;102145.94;7404611;19;20355;-88
2022/11/30 13:01:23;;;;;;;;;;;;;;;11.19;81.17;102147.00;7402350;19;19922;-88
2022/11/30 13:03:54;;;;;;;;;;;;;;;11.14;81.94;102139.47;7398110;19;19926;-88
2022/11/30 13:06:23;;;;;;;;;;;;;;;11.09;81.72;102139.00;7399639;19;20396;-89
2022/11/30 13:08:54;;;;;;;;;;;;;;;11.07;81.87;102134.81;7396034;19;19950;-88
2022/11/30 13:11:24;;;;;;;;;;;;;;;11.06;81.86;102138.41;7396446;19;19947;-90
2022/11/30 13:13:54;;;;;;;;;;;;;;;11.08;81.70;102139.13;7394646;19;19919;-88
2022/11/30 13:16:24;;;;;;;;;;;;;;;11.13;80.90;102142.22;7391495;19;19931;-88
2022/11/30 13:18:57;;;;;;;;;;;;;;;11.14;81.03;102136.00;7393115;19;19922;-88
2022/11/30 13:21:33;;;;;;;;;;;;;;;11.14;81.04;102131.56;7391545;19;20518;-88
2022/11/30 13:24:03;;;;;;;;;;;;;;;11.15;82.09;102133.25;7392615;19;20296;-90
2022/11/30 13:26:31;;;;;;;;;;;;;;;11.16;82.52;102134.06;7391026;19;20286;-89
2022/11/30 13:29:00;;;;;;;;;;;;;;;11.18;82.09;102132.13;7392595;19;20235;-89
2022/11/30 13:31:32;;;;;;;;;;;;;;;11.19;81.73;102135.63;7399260;19;20274;-88
2022/11/30 13:34:01;;;;;;;;;;;;;;;11.20;81.82;102139.94;7394672;19;20022;-88
2022/11/30 13:36:30;;;;;;;;;;;;;;;11.22;82.75;102136.22;7400008;19;20308;-89
2022/11/30 13:39:06;;;;;;;;;;;;;;;11.23;82.73;102137.03;7399492;19;19915;-89
2022/11/30 13:41:34;;;;;;;;;;;;;;;11.24;82.24;102139.56;7397729;19;19927;-91
2022/11/30 13:44:02;;;;;;;;;;;;;;;11.26;81.94;102140.28;7389834;19;20353;-90
2022/11/30 13:46:30;;;;;;;;;;;;;;;11.28;81.22;102143.59;7392624;19;19915;-89